createdAt,value
2023-04-29T00:01:30.958Z,4.53
2023-04-29T00:04:15.093Z,4.57
2023-04-29T00:06:59.437Z,4.10
2023-04-29T00:09:43.418Z,4.13
2023-04-29T00:12:28.454Z,4.20
2023-04-29T00:15:12.839Z,4.20
2023-04-29T00:17:58.439Z,4.50
2023-04-29T00:20:43.601Z,4.00
2023-04-29T00:23:27.627Z,4.60
2023-04-29T00:26:11.871Z,4.10
2023-04-29T00:28:57.011Z,5.23
2023-04-29T00:31:41.107Z,4.97
2023-04-29T00:34:26.888Z,4.87
2023-04-29T00:37:10.870Z,4.33
2023-04-29T00:39:54.935Z,4.63
2023-04-29T00:42:39.131Z,4.67
2023-04-29T00:45:23.107Z,4.70
2023-04-29T00:48:08.027Z,4.40
2023-04-29T00:50:54.007Z,4.90
2023-04-29T00:53:38.719Z,5.00
2023-04-29T00:56:23.199Z,4.70
2023-04-29T00:59:09.503Z,5.40
2023-04-29T01:01:54.199Z,4.70
2023-04-29T01:04:38.430Z,4.60
2023-04-29T01:07:32.537Z,4.33
2023-04-29T01:10:24.098Z,4.43
2023-04-29T01:13:14.594Z,4.83
2023-04-29T01:16:04.032Z,4.70
2023-04-29T01:18:54.185Z,4.37
2023-04-29T01:21:48.803Z,4.37
2023-04-29T01:24:34.602Z,5.40
2023-04-29T01:27:27.526Z,4.33
2023-04-29T01:30:29.056Z,4.70
2023-04-29T01:33:21.399Z,4.53
2023-04-29T01:36:18.415Z,4.60
2023-04-29T01:39:10.225Z,4.87
2023-04-29T01:42:01.326Z,4.80
2023-04-29T01:44:51.277Z,5.20
2023-04-29T01:47:39.248Z,5.47
2023-04-29T01:50:23.534Z,4.33
2023-04-29T01:53:08.486Z,5.20
2023-04-29T01:55:52.494Z,4.30
2023-04-29T01:58:40.689Z,4.83
2023-04-29T02:01:43.107Z,4.47
2023-04-29T02:04:28.706Z,4.80
2023-04-29T02:07:12.957Z,4.97
2023-04-29T02:09:57.240Z,4.90
2023-04-29T02:12:41.645Z,4.80
2023-04-29T02:15:47.311Z,5.27
2023-04-29T02:18:31.928Z,4.53
2023-04-29T02:21:16.098Z,5.03
2023-04-29T02:24:00.205Z,4.60
2023-04-29T02:26:44.253Z,4.70
2023-04-29T02:29:30.064Z,4.67
2023-04-29T02:32:16.369Z,5.10
2023-04-29T02:35:01.042Z,4.80
2023-04-29T02:37:47.905Z,4.50
2023-04-29T02:40:31.903Z,5.17
2023-04-29T02:43:16.419Z,4.57
2023-04-29T02:46:02.305Z,4.67
2023-04-29T02:48:47.865Z,4.60
2023-04-29T02:51:32.665Z,5.20
2023-04-29T02:54:17.684Z,4.70
2023-04-29T02:57:02.144Z,5.13
2023-04-29T02:59:46.231Z,4.90
2023-04-29T03:02:30.410Z,4.87
2023-04-29T03:05:17.732Z,5.00
2023-04-29T03:08:02.009Z,4.73
2023-04-29T03:10:46.785Z,4.73
2023-04-29T03:13:30.928Z,5.47
2023-04-29T03:16:17.066Z,5.70
2023-04-29T03:19:01.645Z,5.30
2023-04-29T03:21:47.181Z,5.20
2023-04-29T03:24:31.287Z,4.30
2023-04-29T03:27:15.916Z,5.43
2023-04-29T03:30:00.293Z,4.60
2023-04-29T03:32:44.595Z,5.43
2023-04-29T03:35:28.833Z,5.73
2023-04-29T03:38:37.019Z,5.20
2023-04-29T03:41:23.464Z,4.90
2023-04-29T03:44:07.783Z,5.07
2023-04-29T03:46:51.978Z,5.20
2023-04-29T03:49:36.061Z,4.70
2023-04-29T03:52:21.088Z,4.73
2023-04-29T03:55:09.833Z,5.17
2023-04-29T03:57:54.307Z,5.40
2023-04-29T04:00:39.477Z,4.30
2023-04-29T04:03:29.375Z,4.90
2023-04-29T04:06:15.205Z,5.20
2023-04-29T04:08:59.769Z,4.80
2023-04-29T04:11:48.215Z,4.83
2023-04-29T04:14:32.639Z,4.57
2023-04-29T04:17:16.992Z,4.90
2023-04-29T04:20:01.768Z,4.80
2023-04-29T04:22:47.343Z,5.07
2023-04-29T04:25:39.529Z,4.90
2023-04-29T04:28:42.709Z,4.33
2023-04-29T04:31:32.960Z,5.03
2023-04-29T04:34:17.228Z,4.93
2023-04-29T04:37:03.843Z,4.83
2023-04-29T04:39:49.443Z,4.97
2023-04-29T04:42:34.316Z,4.83
2023-04-29T04:45:19.872Z,5.17
2023-04-29T04:48:08.002Z,4.40
2023-04-29T04:50:55.118Z,4.90
2023-04-29T04:53:39.612Z,5.00
2023-04-29T04:56:27.739Z,4.80
2023-04-29T04:59:11.850Z,4.90
2023-04-29T05:01:59.275Z,4.03
2023-04-29T05:04:43.455Z,4.30
2023-04-29T05:07:28.617Z,5.10
2023-04-29T05:10:18.019Z,4.80
2023-04-29T05:13:06.621Z,4.27
2023-04-29T05:15:51.624Z,5.20
2023-04-29T05:18:44.349Z,5.57
2023-04-29T05:21:29.056Z,5.13
2023-04-29T05:24:13.198Z,4.90
2023-04-29T05:26:57.519Z,4.80
2023-04-29T05:29:41.584Z,4.17
2023-04-29T05:32:26.177Z,5.00
2023-04-29T05:35:11.920Z,4.53
2023-04-29T05:37:55.944Z,5.63
2023-04-29T05:41:02.868Z,4.90
2023-04-29T05:44:06.038Z,4.30
2023-04-29T05:46:51.820Z,4.00
2023-04-29T05:49:36.567Z,4.07
2023-04-29T05:52:22.153Z,3.97
2023-04-29T05:55:07.730Z,4.00
2023-04-29T05:57:51.755Z,4.50
2023-04-29T06:00:35.846Z,4.03
2023-04-29T06:03:27.970Z,4.20
2023-04-29T06:06:32.296Z,3.80
2023-04-29T06:09:28.394Z,4.10
2023-04-29T06:12:17.168Z,3.87
2023-04-29T06:15:03.441Z,4.00
2023-04-29T06:17:50.086Z,4.53
2023-04-29T06:20:36.086Z,3.83
2023-04-29T06:23:21.473Z,3.77
2023-04-29T06:26:09.650Z,3.53
2023-04-29T06:28:54.391Z,3.30
2023-04-29T06:31:38.670Z,3.73
2023-04-29T06:34:22.786Z,3.57
2023-04-29T06:37:37.545Z,3.17
2023-04-29T06:40:29.133Z,3.00
2023-04-29T06:43:49.937Z,3.70
2023-04-29T06:46:34.372Z,3.30
2023-04-29T06:49:26.224Z,2.90
2023-04-29T06:52:10.484Z,3.03
2023-04-29T06:54:54.644Z,2.60
2023-04-29T06:57:38.579Z,3.10
2023-04-29T07:00:24.893Z,3.60
2023-04-29T07:03:12.532Z,2.57
2023-04-29T07:05:56.754Z,2.80
2023-04-29T07:08:41.038Z,2.80
2023-04-29T07:11:27.115Z,2.73
2023-04-29T07:14:11.209Z,3.43
2023-04-29T07:16:56.802Z,4.07
2023-04-29T07:19:41.237Z,3.73
2023-04-29T07:22:26.055Z,3.10
2023-04-29T07:25:11.282Z,4.37
2023-04-29T07:27:55.914Z,2.50
2023-04-29T07:30:42.198Z,2.90
2023-04-29T07:33:27.785Z,2.63
2023-04-29T07:36:12.952Z,3.40
2023-04-29T07:38:57.638Z,2.70
2023-04-29T07:41:41.785Z,3.57
2023-04-29T07:44:25.932Z,2.77
2023-04-29T07:47:10.116Z,2.70
2023-04-29T07:49:55.732Z,2.67
2023-04-29T07:52:39.895Z,3.50
2023-04-29T07:55:23.992Z,3.23
2023-04-29T07:58:08.303Z,2.83
2023-04-29T08:00:52.622Z,3.07
2023-04-29T08:03:39.744Z,3.20
2023-04-29T08:06:26.343Z,3.07
2023-04-29T08:09:10.949Z,2.90
2023-04-29T08:11:58.286Z,3.83
2023-04-29T08:14:42.685Z,3.03
2023-04-29T08:17:26.747Z,3.00
2023-04-29T08:20:11.888Z,3.40
2023-04-29T08:22:59.533Z,3.80
2023-04-29T08:25:44.754Z,2.90
2023-04-29T08:28:29.107Z,3.20
2023-04-29T08:31:18.629Z,3.00
2023-04-29T08:34:02.981Z,3.00
2023-04-29T08:36:47.107Z,2.83
2023-04-29T08:39:32.687Z,3.50
2023-04-29T08:42:17.139Z,4.00
2023-04-29T08:45:01.831Z,5.97
2023-04-29T08:47:51.644Z,4.97
2023-04-29T08:50:39.670Z,3.30
2023-04-29T08:53:23.946Z,3.60
2023-04-29T08:56:17.838Z,2.90
2023-04-29T08:59:04.468Z,4.70
2023-04-29T09:01:53.125Z,3.50
2023-04-29T09:04:48.732Z,3.03
2023-04-29T09:07:34.530Z,3.10
2023-04-29T09:10:19.568Z,3.30
2023-04-29T09:13:05.199Z,3.17
2023-04-29T09:15:49.257Z,2.77
2023-04-29T09:18:48.019Z,2.80
2023-04-29T09:21:32.413Z,3.53
2023-04-29T09:24:26.974Z,3.40
2023-04-29T09:27:11.354Z,3.20
2023-04-29T09:30:03.423Z,3.40
2023-04-29T09:33:05.846Z,3.00
2023-04-29T09:35:50.453Z,2.90
2023-04-29T09:38:34.549Z,3.47
2023-04-29T09:41:20.164Z,3.20
2023-04-29T09:44:08.217Z,3.07
2023-04-29T09:46:58.763Z,2.80
2023-04-29T09:49:45.618Z,2.90
2023-04-29T09:52:41.738Z,3.30
2023-04-29T09:55:26.891Z,3.00
2023-04-29T09:58:30.166Z,3.30
2023-04-29T10:01:18.068Z,3.20
2023-04-29T10:04:05.726Z,3.37
2023-04-29T10:06:51.466Z,2.83
2023-04-29T10:09:39.159Z,3.00
2023-04-29T10:12:23.845Z,2.70
2023-04-29T10:15:18.009Z,2.70
2023-04-29T10:18:13.315Z,2.90
2023-04-29T10:21:03.143Z,2.63
2023-04-29T10:23:47.802Z,2.97
2023-04-29T10:26:32.490Z,2.53
2023-04-29T10:29:18.673Z,2.73
2023-04-29T10:32:03.723Z,3.27
2023-04-29T10:34:48.124Z,3.23
2023-04-29T10:37:34.347Z,3.17
2023-04-29T10:40:21.403Z,3.10
2023-04-29T10:43:05.869Z,3.07
2023-04-29T10:45:49.930Z,3.00
2023-04-29T10:48:34.046Z,2.97
2023-04-29T10:51:31.779Z,2.90
2023-04-29T10:54:21.183Z,2.93
2023-04-29T10:57:05.278Z,2.88
2023-04-29T10:59:49.315Z,3.30
2023-04-29T11:02:33.304Z,3.08
2023-04-29T11:05:18.718Z,3.22
2023-04-29T11:08:12.786Z,2.88
2023-04-29T11:11:02.814Z,2.78
2023-04-29T11:13:48.150Z,2.85
2023-04-29T11:16:32.210Z,3.00
2023-04-29T11:19:17.143Z,3.37
2023-04-29T11:22:17.811Z,3.00
2023-04-29T11:25:04.140Z,2.58
2023-04-29T11:27:55.580Z,2.75
2023-04-29T11:30:40.269Z,3.00
2023-04-29T11:33:24.280Z,2.88
2023-04-29T11:36:09.358Z,2.58
2023-04-29T11:38:53.322Z,2.72
2023-04-29T11:41:37.703Z,2.50
2023-04-29T11:44:24.490Z,3.03
2023-04-29T11:47:09.142Z,3.20
2023-04-29T11:49:53.501Z,2.50
2023-04-29T11:52:38.899Z,2.25
2023-04-29T11:55:22.848Z,2.40
2023-04-29T11:58:06.770Z,2.83
2023-04-29T12:00:52.535Z,3.00
2023-04-29T12:03:36.904Z,4.72
2023-04-29T12:06:21.013Z,2.50
2023-04-29T12:09:05.367Z,3.20
2023-04-29T12:11:51.082Z,2.40
2023-04-29T12:14:35.214Z,2.50
2023-04-29T12:17:21.445Z,2.20
2023-04-29T12:20:06.381Z,2.20
2023-04-29T12:22:50.536Z,2.95
2023-04-29T12:25:34.682Z,2.67
2023-04-29T12:28:18.894Z,2.30
2023-04-29T12:31:03.605Z,2.75
2023-04-29T12:33:49.082Z,2.85
2023-04-29T12:36:33.334Z,2.38
2023-04-29T12:39:17.925Z,2.20
2023-04-29T12:42:03.278Z,2.20
2023-04-29T12:44:48.350Z,2.20
2023-04-29T12:47:34.805Z,2.33
2023-04-29T12:50:20.619Z,2.38
2023-04-29T12:53:05.341Z,2.28
2023-04-29T12:55:50.215Z,2.10
2023-04-29T12:58:35.135Z,2.20
2023-04-29T13:01:19.363Z,2.42
2023-04-29T13:04:05.405Z,3.08
2023-04-29T13:06:54.544Z,2.50
2023-04-29T13:09:41.663Z,2.15
2023-04-29T13:12:25.981Z,2.10
2023-04-29T13:15:11.585Z,2.80
2023-04-29T13:17:55.833Z,2.30
2023-04-29T13:20:42.532Z,2.40
2023-04-29T13:23:28.381Z,2.22
2023-04-29T13:26:12.617Z,2.40
2023-04-29T13:28:56.784Z,2.45
2023-04-29T13:31:40.917Z,2.00
2023-04-29T13:34:25.070Z,2.42
2023-04-29T13:37:09.115Z,2.20
2023-04-29T13:39:57.508Z,2.42
2023-04-29T13:42:48.923Z,2.08
2023-04-29T13:45:38.873Z,2.30
2023-04-29T13:48:55.033Z,2.42
2023-04-29T13:57:55.306Z,2.35
2023-04-29T14:00:25.079Z,2.33
2023-04-29T14:03:13.930Z,2.10
2023-04-29T14:05:57.924Z,2.20
2023-04-29T14:08:42.052Z,3.08
2023-04-29T14:11:26.427Z,3.38
2023-04-29T14:14:12.050Z,2.58
2023-04-29T14:16:56.072Z,3.08
2023-04-29T14:19:40.214Z,2.30
2023-04-29T14:22:24.257Z,2.30
2023-04-29T14:25:09.645Z,2.90
2023-04-29T14:27:53.713Z,2.45
2023-04-29T14:30:39.049Z,2.00
2023-04-29T14:33:23.105Z,2.33
2023-04-29T14:36:08.534Z,2.65
2023-04-29T14:38:52.604Z,2.72
2023-04-29T14:41:36.621Z,2.80
2023-04-29T14:44:20.655Z,2.20
2023-04-29T14:47:06.206Z,2.40
2023-04-29T14:49:50.373Z,2.60
2023-04-29T14:52:34.448Z,2.20
2023-04-29T14:55:18.612Z,2.58
2023-04-29T14:58:05.119Z,2.28
2023-04-29T15:00:49.507Z,2.05
2023-04-29T15:06:24.261Z,1.65
2023-04-29T15:09:08.488Z,2.50
2023-04-29T15:11:52.545Z,1.85
2023-04-29T15:14:36.748Z,2.45
2023-04-29T15:17:21.048Z,2.20
2023-04-29T15:20:08.049Z,2.75
2023-04-29T15:22:52.155Z,2.75
2023-04-29T15:25:36.625Z,2.85
2023-04-29T15:28:21.019Z,2.63
2023-04-29T15:31:05.679Z,2.95
2023-04-29T15:33:49.914Z,3.20
2023-04-29T15:36:35.488Z,2.67
2023-04-29T15:39:19.527Z,3.03
2023-04-29T15:42:04.046Z,2.88
2023-04-29T15:44:48.141Z,2.50
2023-04-29T15:47:33.925Z,2.58
2023-04-29T15:50:18.196Z,2.35
2023-04-29T15:53:03.663Z,2.80
2023-04-29T15:55:47.594Z,3.28
2023-04-29T15:58:31.631Z,3.25
2023-04-29T16:01:16.071Z,2.92
2023-04-29T16:04:00.231Z,2.67
2023-04-29T16:06:44.510Z,3.80
2023-04-29T16:09:30.231Z,3.30
2023-04-29T16:12:14.434Z,4.25
2023-04-29T16:14:58.546Z,3.60
2023-04-29T16:17:42.660Z,3.05
2023-04-29T16:20:27.204Z,3.03
2023-04-29T16:23:11.227Z,2.50
2023-04-29T16:25:56.859Z,3.17
2023-04-29T16:28:41.134Z,3.57
2023-04-29T16:31:25.289Z,3.30
2023-04-29T16:34:09.364Z,3.73
2023-04-29T16:36:53.507Z,3.93
2023-04-29T16:39:37.556Z,4.10
2023-04-29T16:42:22.936Z,5.23
2023-04-29T16:45:08.142Z,4.17
2023-04-29T16:47:52.365Z,3.73
2023-04-29T16:50:37.729Z,7.53
2023-04-29T16:53:21.794Z,6.17
2023-04-29T16:56:06.294Z,6.50
2023-04-29T16:58:51.944Z,4.90
2023-04-29T17:01:35.931Z,4.00
2023-04-29T17:04:20.054Z,3.40
2023-04-29T17:07:04.242Z,3.30
2023-04-29T17:09:48.600Z,4.23
2023-04-29T17:12:33.189Z,3.70
2023-04-29T17:15:18.649Z,4.27
2023-04-29T17:18:03.133Z,4.60
2023-04-29T17:20:48.852Z,4.73
2023-04-29T17:23:34.629Z,4.80
2023-04-29T17:26:18.520Z,4.53
2023-04-29T17:29:02.547Z,6.87
2023-04-29T17:31:54.503Z,7.50
2023-04-29T17:34:38.853Z,7.00
2023-04-29T17:37:25.193Z,4.63
2023-04-29T17:40:10.723Z,5.30
2023-04-29T17:42:54.929Z,5.00
2023-04-29T17:45:41.694Z,6.17
2023-04-29T17:48:27.264Z,6.27
2023-04-29T17:51:11.319Z,6.50
2023-04-29T17:53:55.408Z,6.80
2023-04-29T17:56:39.588Z,7.17
2023-04-29T17:59:23.760Z,5.60
2023-04-29T18:02:08.280Z,5.83
2023-04-29T18:04:54.087Z,5.73
2023-04-29T18:07:38.134Z,5.57
2023-04-29T18:10:22.200Z,6.57
2023-04-29T18:13:06.174Z,34.53
2023-04-29T18:15:50.166Z,24.10
2023-04-29T18:18:34.690Z,5.70
2023-04-29T18:21:23.403Z,6.20
2023-04-29T18:24:08.113Z,8.00
2023-04-29T18:26:52.181Z,10.27
2023-04-29T18:29:36.129Z,9.03
2023-04-29T18:32:20.187Z,8.90
2023-04-29T18:35:04.289Z,8.60
2023-04-29T18:37:49.887Z,6.27
2023-04-29T18:40:33.899Z,5.70
2023-04-29T18:43:22.502Z,7.77
2023-04-29T18:46:06.592Z,6.20
2023-04-29T18:48:50.968Z,8.60
2023-04-29T18:51:35.054Z,4.63
2023-04-29T18:54:20.579Z,5.27
2023-04-29T18:57:05.175Z,5.30
2023-04-29T18:59:49.110Z,8.70
2023-04-29T19:02:33.400Z,7.90
2023-04-29T19:05:17.550Z,5.63
2023-04-29T19:08:01.579Z,5.23
2023-04-29T19:10:47.086Z,5.63
2023-04-29T19:13:31.098Z,5.37
2023-04-29T19:16:15.158Z,5.17
2023-04-29T19:18:59.369Z,6.23
2023-04-29T19:21:43.789Z,8.60
2023-04-29T19:24:27.889Z,5.40
2023-04-29T19:27:13.392Z,6.07
2023-04-29T19:29:57.438Z,6.50
2023-04-29T19:32:41.519Z,5.60
2023-04-29T19:35:25.667Z,5.20
2023-04-29T19:38:09.722Z,4.43
2023-04-29T19:40:55.969Z,7.73
2023-04-29T19:43:41.248Z,8.47
2023-04-29T19:46:25.507Z,10.83
2023-04-29T19:49:09.796Z,8.67
2023-04-29T19:51:54.256Z,7.00
2023-04-29T19:54:38.818Z,4.77
2023-04-29T19:57:22.778Z,6.33
2023-04-29T20:00:09.667Z,11.60
2023-04-29T20:02:53.815Z,9.37
2023-04-29T20:05:37.853Z,5.93
2023-04-29T20:08:21.939Z,6.40
2023-04-29T20:11:05.968Z,5.60
2023-04-29T20:13:50.330Z,5.30
2023-04-29T20:16:35.871Z,4.47
2023-04-29T20:19:19.829Z,4.80
2023-04-29T20:22:03.878Z,4.93
2023-04-29T20:24:47.820Z,5.47
2023-04-29T20:27:31.955Z,5.27
2023-04-29T20:30:15.977Z,5.63
2023-04-29T20:33:01.986Z,5.60
2023-04-29T20:35:45.995Z,7.30
2023-04-29T20:38:30.056Z,10.63
2023-04-29T20:41:14.160Z,6.87
2023-04-29T20:43:58.757Z,7.10
2023-04-29T20:46:46.162Z,7.03
2023-04-29T20:49:31.567Z,7.30
2023-04-29T20:52:15.800Z,6.60
2023-04-29T20:55:00.002Z,7.50
2023-04-29T20:57:43.981Z,5.80
2023-04-29T21:00:28.085Z,7.40
2023-04-29T21:03:12.134Z,7.60
2023-04-29T21:05:58.229Z,10.40
2023-04-29T21:08:43.067Z,6.50
2023-04-29T21:11:27.182Z,8.73
2023-04-29T21:14:13.180Z,6.30
2023-04-29T21:16:57.360Z,7.60
2023-04-29T21:19:41.408Z,8.23
2023-04-29T21:22:26.830Z,7.63
2023-04-29T21:25:10.895Z,6.20
2023-04-29T21:27:54.864Z,6.27
2023-04-29T21:30:38.890Z,5.03
2023-04-29T21:33:22.887Z,4.97
2023-04-29T21:36:07.170Z,3.70
2023-04-29T21:38:52.966Z,4.60
2023-04-29T21:41:40.011Z,4.70
2023-04-29T21:44:24.176Z,5.33
2023-04-29T21:47:09.105Z,4.33
2023-04-29T21:49:55.389Z,5.07
2023-04-29T21:52:39.609Z,5.70
2023-04-29T21:55:25.304Z,4.37
2023-04-29T21:58:09.340Z,4.87
2023-04-29T22:01:01.613Z,5.37
2023-04-29T22:03:45.854Z,4.97
2023-04-29T22:06:29.818Z,4.60
2023-04-29T22:09:13.807Z,4.60
2023-04-29T22:11:59.214Z,4.50
2023-04-29T22:14:43.263Z,4.80
2023-04-29T22:17:27.234Z,4.77
2023-04-29T22:20:13.974Z,4.27
2023-04-29T22:22:58.185Z,4.50
2023-04-29T22:25:42.170Z,4.50
2023-04-29T22:28:27.617Z,5.17
2023-04-29T22:31:11.680Z,4.97
2023-04-29T22:33:55.584Z,5.90
2023-04-29T22:36:40.159Z,5.10
2023-04-29T22:39:24.074Z,5.43
2023-04-29T22:42:08.122Z,4.77
2023-04-29T22:44:53.671Z,4.97
2023-04-29T22:47:37.756Z,4.67
2023-04-29T22:50:21.786Z,4.73
2023-04-29T22:53:05.727Z,4.80
2023-04-29T22:55:53.281Z,5.53
2023-04-29T22:58:37.270Z,4.87
2023-04-29T23:01:22.725Z,5.67
2023-04-29T23:04:07.019Z,4.90
2023-04-29T23:06:51.086Z,6.30
2023-04-29T23:09:35.122Z,5.97
2023-04-29T23:12:19.902Z,5.20
2023-04-29T23:15:04.502Z,4.70
2023-04-29T23:17:50.174Z,5.23
2023-04-29T23:20:34.140Z,4.73
2023-04-29T23:23:18.163Z,4.93
2023-04-29T23:26:02.130Z,5.30
2023-04-29T23:28:46.215Z,4.50
2023-04-29T23:31:30.251Z,5.40
2023-04-29T23:34:17.995Z,5.03
2023-04-29T23:37:02.599Z,5.20
2023-04-29T23:39:46.602Z,6.00
2023-04-29T23:42:30.500Z,4.60
2023-04-29T23:45:14.500Z,5.27
2023-04-29T23:47:58.470Z,5.23
2023-04-29T23:50:43.893Z,5.40
2023-04-29T23:53:27.864Z,4.67
2023-04-29T23:56:12.061Z,5.47
2023-04-29T23:58:56.037Z,5.33
